Time;durP1;ratioP1;P1;durP2;ratioP2;P2;SDS_P1;SDS_P2;PMS_P1;PMS_P2;Temp;Humidity;BMP_temperature;BMP_pressure;BME280_temperature;BME280_humidity;BME280_pressure;Samples;Min_cycle;Max_cycle;Signal;HPM_P1;HPM_P2
2022/06/20 00:01:10;;;;;;;2.13;2.03;;;26.60;99.90;;;;;;5014297;28;20201;-63
2022/06/20 00:03:41;;;;;;;2.00;1.90;;;26.50;99.90;;;;;;5014283;28;20213;-65
2022/06/20 00:06:12;;;;;;;2.00;1.90;;;26.50;99.90;;;;;;5018286;28;20276;-65
2022/06/20 00:08:39;;;;;;;2.00;1.80;;;26.50;99.90;;;;;;5020244;28;20292;-64
2022/06/20 00:11:06;;;;;;;2.20;1.98;;;26.50;99.90;;;;;;5022287;28;20671;-65
2022/06/20 00:13:35;;;;;;;2.22;1.88;;;26.50;99.90;;;;;;5023577;28;20221;-65
2022/06/20 00:16:03;;;;;;;2.08;1.90;;;26.40;99.90;;;;;;5017998;28;20319;-64
2022/06/20 00:18:32;;;;;;;2.10;2.00;;;26.30;99.90;;;;;;5017713;28;20236;-64
2022/06/20 00:20:59;;;;;;;2.08;1.92;;;26.20;99.90;;;;;;5012118;28;20229;-64
2022/06/20 00:23:26;;;;;;;2.75;2.03;;;26.10;99.90;;;;;;5010048;28;20211;-64
2022/06/20 00:25:53;;;;;;;2.08;1.80;;;25.90;99.90;;;;;;5011411;28;20336;-63
2022/06/20 00:28:20;;;;;;;1.90;1.80;;;25.80;99.90;;;;;;5011324;28;20292;-64
2022/06/20 00:30:47;;;;;;;1.98;1.80;;;25.80;99.90;;;;;;5013082;28;20212;-64
2022/06/20 00:33:15;;;;;;;2.20;1.85;;;25.70;99.90;;;;;;5014588;28;20640;-64
2022/06/20 00:35:44;;;;;;;1.80;1.70;;;25.60;99.90;;;;;;5010493;28;20238;-63
2022/06/20 00:38:17;;;;;;;3.03;2.40;;;25.60;99.90;;;;;;5009910;28;20208;-65
2022/06/20 00:40:47;;;;;;;1.60;1.50;;;25.60;99.90;;;;;;5008315;28;20580;-63
2022/06/20 00:43:20;;;;;;;2.10;1.90;;;25.50;99.90;;;;;;5006778;28;20419;-63
2022/06/20 00:45:50;;;;;;;1.80;1.70;;;25.40;99.90;;;;;;5011462;28;20221;-63
2022/06/20 00:48:22;;;;;;;2.10;1.90;;;25.30;99.90;;;;;;5012009;28;20292;-63
2022/06/20 00:50:54;;;;;;;2.22;2.03;;;25.30;99.90;;;;;;5011380;28;20209;-62
2022/06/20 00:53:27;;;;;;;1.80;1.70;;;25.30;99.90;;;;;;5009852;28;20300;-64
2022/06/20 00:55:57;;;;;;;2.03;1.75;;;25.30;99.90;;;;;;5011073;28;20229;-64
2022/06/20 00:58:32;;;;;;;1.90;1.80;;;25.30;99.90;;;;;;5012127;28;20312;-64
2022/06/20 01:01:00;;;;;;;1.90;1.80;;;25.20;99.90;;;;;;5009117;28;20237;-65
2022/06/20 01:03:29;;;;;;;2.00;1.80;;;25.20;99.90;;;;;;5007854;28;20320;-63
2022/06/20 01:06:00;;;;;;;2.05;1.90;;;25.20;99.90;;;;;;5010479;28;20287;-63
2022/06/20 01:08:30;;;;;;;2.20;1.63;;;25.00;99.90;;;;;;5010920;28;20293;-65
2022/06/20 01:11:01;;;;;;;2.25;2.00;;;25.00;99.90;;;;;;5011768;28;20208;-63
2022/06/20 01:13:28;;;;;;;2.00;1.90;;;25.00;99.90;;;;;;5013221;28;20205;-65
2022/06/20 01:16:06;;;;;;;2.17;1.98;;;24.90;99.90;;;;;;5009892;28;21770;-63
2022/06/20 01:18:35;;;;;;;2.00;1.90;;;24.90;99.90;;;;;;5010957;28;20208;-63
2022/06/20 01:21:10;;;;;;;2.10;2.00;;;24.90;99.90;;;;;;5013388;28;20231;-63
2022/06/20 01:23:44;;;;;;;2.25;2.05;;;24.90;99.90;;;;;;5012069;28;20203;-63
2022/06/20 01:26:21;;;;;;;2.30;1.90;;;25.00;99.90;;;;;;5009069;28;20239;-65
2022/06/20 01:28:54;;;;;;;2.33;1.92;;;25.00;99.90;;;;;;5011585;28;20320;-62
2022/06/20 01:31:23;;;;;;;1.92;1.83;;;25.00;99.90;;;;;;5011215;28;20486;-63
2022/06/20 01:33:50;;;;;;;2.35;1.85;;;25.00;99.90;;;;;;5010228;28;20215;-64
2022/06/20 01:39:06;;;;;;;2.20;2.00;;;25.10;99.90;;;;;;5013319;28;21158;-63
2022/06/20 01:44:21;;;;;;;2.08;1.88;;;25.10;99.90;;;;;;5008999;28;20251;-65
2022/06/20 01:46:48;;;;;;;2.00;1.90;;;25.10;99.90;;;;;;5011039;28;20311;-64
2022/06/20 01:49:19;;;;;;;1.88;1.77;;;25.10;99.90;;;;;;5015458;28;20204;-63
2022/06/20 01:51:52;;;;;;;2.28;2.08;;;25.10;99.90;;;;;;5010133;28;20248;-64
2022/06/20 01:54:21;;;;;;;1.75;1.65;;;25.10;99.90;;;;;;5010104;28;20295;-62
2022/06/20 01:56:50;;;;;;;1.90;1.80;;;25.00;99.90;;;;;;5011408;28;21031;-64
2022/06/20 01:59:24;;;;;;;2.10;1.77;;;25.00;99.90;;;;;;5021068;28;20304;-65
2022/06/20 02:01:52;;;;;;;1.80;1.70;;;25.00;99.90;;;;;;5016142;28;20336;-65
2022/06/20 02:04:22;;;;;;;1.83;1.73;;;25.10;99.90;;;;;;5013021;28;20296;-64
2022/06/20 02:06:49;;;;;;;2.03;1.90;;;25.10;99.90;;;;;;5014494;28;20666;-64
2022/06/20 02:09:16;;;;;;;2.60;1.85;;;25.10;99.90;;;;;;5016112;28;20583;-63
2022/06/20 02:11:45;;;;;;;2.00;1.80;;;25.10;99.90;;;;;;5014308;28;20607;-64
2022/06/20 02:14:15;;;;;;;1.95;1.85;;;25.10;99.90;;;;;;5032952;28;20307;-64
2022/06/20 02:16:47;;;;;;;1.88;1.60;;;25.00;99.90;;;;;;5030889;28;20257;-64
2022/06/20 02:19:19;;;;;;;1.92;1.80;;;25.00;99.90;;;;;;5018163;28;20207;-64
2022/06/20 02:21:47;;;;;;;1.85;1.75;;;24.90;99.90;;;;;;5014012;28;20296;-64
2022/06/20 02:24:18;;;;;;;2.03;1.70;;;24.90;99.90;;;;;;5014522;28;20269;-64
2022/06/20 02:26:50;;;;;;;2.00;1.88;;;25.00;99.90;;;;;;5017612;28;20233;-65
2022/06/20 02:29:22;;;;;;;2.35;1.70;;;25.00;99.90;;;;;;5021116;28;20204;-65
2022/06/20 02:31:53;;;;;;;1.70;1.60;;;24.90;99.90;;;;;;5016889;28;20940;-64
2022/06/20 02:34:23;;;;;;;1.77;1.67;;;24.90;99.90;;;;;;5015236;28;20660;-64
2022/06/20 02:36:51;;;;;;;2.05;1.85;;;24.80;99.90;;;;;;5014040;28;20237;-64
2022/06/20 02:39:18;;;;;;;2.20;2.00;;;24.80;99.90;;;;;;5017745;28;20235;-64
2022/06/20 02:41:47;;;;;;;2.00;1.80;;;24.80;99.90;;;;;;5013699;28;20320;-64
2022/06/20 02:44:17;;;;;;;2.00;1.80;;;24.90;99.90;;;;;;5017580;28;20208;-65
2022/06/20 02:46:47;;;;;;;3.15;1.70;;;24.90;99.90;;;;;;5015690;28;20224;-65
2022/06/20 02:49:18;;;;;;;2.00;1.80;;;24.90;99.90;;;;;;5016874;28;20686;-64
2022/06/20 02:51:49;;;;;;;2.55;1.98;;;25.00;99.90;;;;;;5022571;28;20286;-64
2022/06/20 02:54:18;;;;;;;2.05;1.85;;;25.00;99.90;;;;;;5025606;28;20228;-65
2022/06/20 02:56:49;;;;;;;1.92;1.65;;;25.00;99.90;;;;;;5029960;28;20715;-65
2022/06/20 02:59:19;;;;;;;2.47;1.73;;;25.00;99.90;;;;;;5034006;28;20200;-63
2022/06/20 03:01:53;;;;;;;1.88;1.77;;;25.00;99.90;;;;;;5024257;28;20307;-64
2022/06/20 03:04:22;;;;;;;2.47;2.00;;;25.00;99.90;;;;;;5024448;28;20220;-64
2022/06/20 03:06:54;;;;;;;2.13;1.92;;;25.10;99.90;;;;;;5023853;28;20232;-63
2022/06/20 03:09:30;;;;;;;2.03;1.80;;;25.00;99.90;;;;;;5025881;28;20209;-64
2022/06/20 03:11:57;;;;;;;2.05;1.85;;;25.00;99.90;;;;;;5024113;28;20214;-64
2022/06/20 03:14:30;;;;;;;2.30;1.88;;;24.90;99.90;;;;;;5022615;28;20204;-65
2022/06/20 03:16:58;;;;;;;1.92;1.83;;;25.00;99.90;;;;;;5019253;28;20723;-63
2022/06/20 03:19:31;;;;;;;1.90;1.80;;;25.00;99.90;;;;;;5021725;28;20211;-63
2022/06/20 03:22:00;;;;;;;2.10;2.00;;;24.90;99.90;;;;;;5019613;28;20229;-65
2022/06/20 03:24:28;;;;;;;1.90;1.80;;;24.70;99.90;;;;;;5014741;28;20219;-65
2022/06/20 03:26:56;;;;;;;2.65;1.90;;;24.60;99.90;;;;;;5015887;28;20719;-66
2022/06/20 03:29:25;;;;;;;2.08;1.98;;;24.40;99.90;;;;;;5018668;28;20564;-63
2022/06/20 03:31:52;;;;;;;2.28;2.08;;;24.40;99.90;;;;;;5020916;28;20209;-64
2022/06/20 03:34:19;;;;;;;2.33;2.17;;;24.10;99.90;;;;;;5021701;28;20209;-64
2022/06/20 03:36:47;;;;;;;2.72;2.20;;;24.10;99.90;;;;;;5015113;28;20753;-65
2022/06/20 03:39:15;;;;;;;2.38;2.17;;;24.10;99.90;;;;;;5015757;28;20208;-65
2022/06/20 03:41:43;;;;;;;2.05;1.95;;;24.20;99.90;;;;;;5014349;28;20256;-63
2022/06/20 03:44:16;;;;;;;2.33;2.05;;;24.10;99.90;;;;;;5011224;28;20205;-64
2022/06/20 03:46:49;;;;;;;2.28;1.85;;;24.10;99.90;;;;;;5014708;28;20716;-63
2022/06/20 03:49:20;;;;;;;2.20;2.00;;;24.00;99.90;;;;;;5015684;28;20325;-63
2022/06/20 03:51:53;;;;;;;2.65;2.33;;;24.00;99.90;;;;;;5021002;28;20586;-64
2022/06/20 03:54:26;;;;;;;2.20;2.00;;;23.90;99.90;;;;;;5023814;28;20300;-64
2022/06/20 03:56:57;;;;;;;2.40;2.20;;;23.80;99.90;;;;;;5021121;28;20705;-65
2022/06/20 03:59:26;;;;;;;1.80;1.70;;;23.80;99.90;;;;;;5022403;28;20208;-64
2022/06/20 04:02:00;;;;;;;2.08;1.90;;;23.80;99.90;;;;;;5017967;28;20320;-64
2022/06/20 04:04:30;;;;;;;1.70;1.60;;;23.90;99.90;;;;;;5016826;28;20294;-64
2022/06/20 04:07:03;;;;;;;2.53;1.77;;;23.90;99.90;;;;;;5016782;28;21098;-65
2022/06/20 04:12:25;;;;;;;1.90;1.80;;;24.00;99.90;;;;;;5015728;28;20318;-65
2022/06/20 04:14:58;;;;;;;2.13;1.92;;;24.00;99.90;;;;;;5017234;28;20200;-65
2022/06/20 04:20:23;;;;;;;2.20;1.98;;;23.90;99.90;;;;;;5014403;28;20254;-62
2022/06/20 04:22:55;;;;;;;2.60;1.98;;;24.00;99.90;;;;;;5010505;28;20588;-63
2022/06/20 04:25:31;;;;;;;2.00;1.80;;;23.90;99.90;;;;;;5012821;28;20207;-63
2022/06/20 04:28:05;;;;;;;1.75;1.65;;;24.00;99.90;;;;;;5010354;28;20200;-63
2022/06/20 04:30:37;;;;;;;2.08;1.95;;;24.00;99.90;;;;;;5014241;28;20319;-64
2022/06/20 04:33:10;;;;;;;2.58;1.63;;;23.90;99.90;;;;;;5014937;28;20220;-62
2022/06/20 04:35:43;;;;;;;1.92;1.83;;;23.90;99.90;;;;;;5017521;28;20213;-63
2022/06/20 04:38:20;;;;;;;1.70;1.60;;;24.00;99.90;;;;;;5018047;28;20243;-65
2022/06/20 04:40:52;;;;;;;2.13;1.95;;;24.10;99.90;;;;;;5017780;28;20226;-64
2022/06/20 04:43:26;;;;;;;2.22;2.03;;;24.10;99.90;;;;;;5012693;28;20212;-65
2022/06/20 04:45:59;;;;;;;2.20;2.00;;;24.10;99.90;;;;;;5011305;28;20224;-63
2022/06/20 04:48:27;;;;;;;2.00;1.90;;;24.10;99.90;;;;;;5012084;28;20309;-64
2022/06/20 04:50:56;;;;;;;1.80;1.70;;;24.10;99.90;;;;;;5019093;28;20208;-64
2022/06/20 04:53:27;;;;;;;1.83;1.73;;;24.10;99.90;;;;;;5015928;28;20208;-63
2022/06/20 04:55:58;;;;;;;2.00;1.85;;;24.10;99.90;;;;;;5015801;28;20270;-63
2022/06/20 04:58:34;;;;;;;1.77;1.67;;;24.10;99.90;;;;;;5030196;28;20200;-64
2022/06/20 05:01:02;;;;;;;1.98;1.80;;;24.10;99.90;;;;;;5032946;28;20208;-64
2022/06/20 05:03:34;;;;;;;1.90;1.80;;;24.20;99.90;;;;;;5039669;28;20204;-62
2022/06/20 05:06:02;;;;;;;2.13;1.90;;;24.20;99.90;;;;;;5036130;28;20244;-63
2022/06/20 05:08:35;;;;;;;2.08;1.58;;;24.20;99.90;;;;;;5023597;28;20292;-64
2022/06/20 05:11:07;;;;;;;1.95;1.75;;;24.30;99.90;;;;;;5015083;28;20288;-64
2022/06/20 05:13:39;;;;;;;1.88;1.60;;;24.40;99.90;;;;;;5012775;28;20375;-62
2022/06/20 05:16:12;;;;;;;2.00;1.90;;;24.50;99.90;;;;;;5012289;28;20234;-62
2022/06/20 05:18:43;;;;;;;2.10;1.77;;;24.60;99.90;;;;;;5016733;28;20208;-59
2022/06/20 05:21:15;;;;;;;1.80;1.48;;;24.80;99.90;;;;;;5016375;28;20896;-60
2022/06/20 05:23:46;;;;;;;2.22;1.88;;;24.80;99.90;;;;;;5018981;28;20212;-60
2022/06/20 05:26:16;;;;;;;1.35;1.33;;;24.90;99.90;;;;;;5016337;28;20240;-60
2022/06/20 05:28:46;;;;;;;1.88;1.70;;;25.10;99.90;;;;;;5019374;28;20213;-61
2022/06/20 05:31:16;;;;;;;1.90;1.80;;;25.20;99.90;;;;;;5025628;28;20236;-62
2022/06/20 05:33:49;;;;;;;1.67;1.58;;;25.20;99.90;;;;;;5022448;28;20648;-62
2022/06/20 05:36:21;;;;;;;1.63;1.52;;;25.20;99.90;;;;;;5012233;28;20315;-63
2022/06/20 05:38:53;;;;;;;2.08;1.65;;;25.00;99.90;;;;;;5015486;28;20236;-63
2022/06/20 05:41:21;;;;;;;1.60;1.50;;;25.00;99.90;;;;;;5013445;28;20370;-63
2022/06/20 05:43:48;;;;;;;2.05;1.90;;;24.90;99.90;;;;;;5011172;28;21518;-63
2022/06/20 05:46:23;;;;;;;2.25;2.05;;;24.80;99.90;;;;;;5012437;28;20866;-65
2022/06/20 05:48:53;;;;;;;2.00;1.90;;;24.60;99.90;;;;;;5019939;28;20188;-63
2022/06/20 05:51:22;;;;;;;2.13;1.95;;;24.60;99.90;;;;;;5020394;28;20300;-64
2022/06/20 05:53:55;;;;;;;2.42;2.22;;;24.50;99.90;;;;;;5022203;28;20303;-63
2022/06/20 05:56:27;;;;;;;2.53;2.33;;;24.40;99.90;;;;;;5024137;28;20221;-64
2022/06/20 05:58:55;;;;;;;2.35;2.10;;;24.50;99.90;;;;;;5020320;28;20245;-64
2022/06/20 06:01:30;;;;;;;2.15;1.98;;;24.60;99.90;;;;;;5012543;28;20239;-64
2022/06/20 06:04:04;;;;;;;2.83;2.13;;;24.60;99.90;;;;;;5012435;28;20219;-64
2022/06/20 06:06:37;;;;;;;2.13;1.90;;;24.70;99.90;;;;;;5015691;28;20251;-64
2022/06/20 06:09:12;;;;;;;2.08;1.98;;;24.70;99.90;;;;;;5018697;28;20231;-63
2022/06/20 06:11:49;;;;;;;2.58;2.38;;;24.80;99.90;;;;;;5020792;28;20369;-64
2022/06/20 06:14:22;;;;;;;2.40;2.20;;;25.00;99.90;;;;;;5020391;28;20604;-63
2022/06/20 06:16:54;;;;;;;2.40;2.20;;;25.10;99.90;;;;;;5017592;28;20331;-63
2022/06/20 06:19:30;;;;;;;2.38;2.00;;;25.10;99.90;;;;;;5020305;28;20200;-63
2022/06/20 06:22:00;;;;;;;3.47;2.10;;;25.20;99.90;;;;;;5019760;28;20343;-62
2022/06/20 06:24:31;;;;;;;2.10;2.00;;;25.20;99.90;;;;;;5017354;28;20208;-62
2022/06/20 06:27:00;;;;;;;2.70;2.00;;;25.20;99.90;;;;;;5023406;28;20236;-63
2022/06/20 06:29:32;;;;;;;2.20;2.00;;;25.20;99.90;;;;;;5027881;28;20209;-63
2022/06/20 06:32:03;;;;;;;1.90;1.80;;;25.30;99.90;;;;;;5033696;28;20204;-64
2022/06/20 06:34:44;;;;;;;2.20;2.00;;;25.40;99.90;;;;;;5035169;28;20287;-64
2022/06/20 06:37:18;;;;;;;1.98;1.88;;;25.50;99.90;;;;;;5028555;28;20695;-64
2022/06/20 06:39:52;;;;;;;2.13;1.92;;;25.60;99.90;;;;;;5111377;22;20240;-70
2022/06/20 06:42:20;;;;;;;2.35;2.10;;;25.70;99.90;;;;;;5103425;28;20218;-69
2022/06/20 06:44:50;;;;;;;2.20;2.00;;;25.80;99.90;;;;;;5113549;28;20202;-70
2022/06/20 06:47:22;;;;;;;2.50;2.30;;;25.80;99.90;;;;;;5110783;28;20246;-70
2022/06/20 06:49:53;;;;;;;1.90;1.80;;;25.90;99.90;;;;;;5113996;28;20219;-70
2022/06/20 06:52:25;;;;;;;1.83;1.73;;;26.00;99.90;;;;;;5112899;28;20190;-69
2022/06/20 06:54:58;;;;;;;1.83;1.73;;;26.00;99.90;;;;;;5106698;28;20194;-68
2022/06/20 06:57:32;;;;;;;1.75;1.65;;;25.90;99.90;;;;;;5102069;28;20207;-70
2022/06/20 07:00:18;;;;;;;3.20;1.92;;;26.00;99.90;;;;;;5101034;28;20242;-70
2022/06/20 07:02:51;;;;;;;2.35;2.15;;;26.00;99.90;;;;;;5106167;28;20317;-69
2022/06/20 07:05:25;;;;;;;2.80;2.10;;;26.00;99.90;;;;;;5111819;28;20190;-69
2022/06/20 07:07:56;;;;;;;1.90;1.80;;;26.20;99.90;;;;;;5100218;28;20647;-68
2022/06/20 07:10:31;;;;;;;2.03;1.85;;;26.40;99.90;;;;;;5106864;28;20267;-69
2022/06/20 07:13:02;;;;;;;2.15;1.98;;;26.50;99.90;;;;;;5100005;28;20557;-68
2022/06/20 07:15:30;;;;;;;1.90;1.80;;;26.70;99.90;;;;;;5106325;28;20208;-70
2022/06/20 07:18:00;;;;;;;1.98;1.88;;;26.60;99.90;;;;;;5103343;28;20195;-69
2022/06/20 07:20:31;;;;;;;2.03;1.80;;;26.50;99.90;;;;;;5107600;28;20201;-71
2022/06/20 07:23:01;;;;;;;2.00;1.90;;;26.40;99.90;;;;;;5102765;28;20309;-70
2022/06/20 07:25:41;;;;;;;2.00;1.88;;;26.40;99.90;;;;;;5132070;27;20261;-69
2022/06/20 07:28:15;;;;;;;3.35;2.10;;;26.50;99.90;;;;;;5136020;27;20189;-69
2022/06/20 07:30:46;;;;;;;1.77;1.67;;;26.50;99.90;;;;;;5115127;27;20202;-70
2022/06/20 07:33:21;;;;;;;2.28;2.08;;;26.70;99.90;;;;;;5137301;27;20193;-70
2022/06/20 07:35:54;;;;;;;2.22;2.00;;;26.90;99.90;;;;;;5133504;27;20293;-71
2022/06/20 07:38:27;;;;;;;2.10;1.90;;;27.10;99.90;;;;;;5121722;27;20626;-70
2022/06/20 07:40:58;;;;;;;2.80;2.33;;;27.10;99.90;;;;;;5103177;28;20206;-71
2022/06/20 07:43:31;;;;;;;2.10;2.00;;;27.10;99.90;;;;;;5101407;28;20198;-69
2022/06/20 07:46:04;;;;;;;2.00;1.90;;;26.70;99.90;;;;;;5096074;28;20683;-70
2022/06/20 07:48:34;;;;;;;2.50;2.30;;;26.70;99.90;;;;;;5101317;28;20301;-69
2022/06/20 07:51:10;;;;;;;2.42;2.22;;;26.40;99.90;;;;;;5103929;28;20202;-69
2022/06/20 07:53:41;;;;;;;3.22;2.40;;;26.40;99.90;;;;;;5097050;28;20349;-70
2022/06/20 07:56:12;;;;;;;2.03;1.90;;;26.50;99.90;;;;;;5107304;28;20294;-68
2022/06/20 07:58:43;;;;;;;2.40;2.20;;;26.70;99.90;;;;;;5110368;28;20221;-71
2022/06/20 08:01:18;;;;;;;2.40;2.00;;;26.80;99.90;;;;;;5104747;28;20728;-69
2022/06/20 08:03:51;;;;;;;1.85;1.75;;;27.00;99.90;;;;;;5107399;28;20209;-70
2022/06/20 08:06:24;;;;;;;2.90;1.80;;;27.20;99.90;;;;;;5103426;28;20290;-70
2022/06/20 08:08:56;;;;;;;2.33;2.13;;;27.40;99.90;;;;;;5128625;28;20218;-70
2022/06/20 08:11:41;;;;;;;2.28;2.08;;;27.60;99.90;;;;;;5119323;28;20229;-70
2022/06/20 08:14:17;;;;;;;2.25;2.03;;;27.60;99.90;;;;;;5109932;28;20202;-70
2022/06/20 08:16:45;;;;;;;1.92;1.83;;;27.60;99.90;;;;;;5116480;28;20269;-69
2022/06/20 08:19:11;;;;;;;2.00;1.75;;;27.90;99.90;;;;;;5108591;28;20242;-69
2022/06/20 08:21:43;;;;;;;2.05;1.90;;;28.20;99.90;;;;;;5103029;28;20269;-69
2022/06/20 08:24:16;;;;;;;3.95;2.03;;;28.40;99.90;;;;;;5101793;28;20199;-68
2022/06/20 08:26:49;;;;;;;2.78;1.88;;;28.70;99.90;;;;;;5101198;28;20198;-70
2022/06/20 08:29:24;;;;;;;2.50;2.10;;;28.90;99.90;;;;;;5101473;28;20222;-68
2022/06/20 08:31:54;;;;;;;2.13;1.95;;;29.10;99.90;;;;;;5105064;28;20208;-69
2022/06/20 08:34:26;;;;;;;2.67;2.47;;;28.70;99.90;;;;;;5099529;28;20198;-69
2022/06/20 08:36:57;;;;;;;2.20;2.10;;;28.50;99.90;;;;;;5099434;28;20669;-69
2022/06/20 08:39:29;;;;;;;1.95;1.85;;;28.40;99.90;;;;;;5102675;28;20766;-69
2022/06/20 08:42:16;;;;;;;2.10;2.00;;;28.80;99.90;;;;;;5106010;28;20313;-69
2022/06/20 08:45:04;;;;;;;2.38;2.17;;;28.90;99.90;;;;;;5099620;28;20660;-70
2022/06/20 08:48:04;;;;;;;1.90;1.80;;;28.80;99.90;;;;;;5101562;28;20198;-68
2022/06/20 08:51:09;;;;;;;1.98;1.85;;;28.70;99.90;;;;;;5103473;28;20270;-70
2022/06/20 08:54:25;;;;;;;2.60;2.00;;;28.80;99.90;;;;;;5102637;28;20245;-71
2022/06/20 08:57:11;;;;;;;2.22;2.03;;;29.10;99.90;;;;;;5109667;28;20664;-69
2022/06/20 09:00:04;;;;;;;1.90;1.80;;;28.90;99.90;;;;;;5104352;28;20233;-69
2022/06/20 09:02:53;;;;;;;2.20;2.00;;;28.90;99.90;;;;;;5101130;28;20304;-70
2022/06/20 09:05:41;;;;;;;2.47;1.90;;;29.00;99.90;;;;;;5101302;28;20205;-69
2022/06/20 09:08:26;;;;;;;2.10;1.90;;;29.10;99.90;;;;;;5102184;28;20198;-69
2022/06/20 09:11:06;;;;;;;1.95;1.85;;;29.20;99.90;;;;;;5093461;28;20281;-69
2022/06/20 09:13:48;;;;;;;2.60;2.13;;;29.20;99.90;;;;;;5101897;28;20218;-69
2022/06/20 09:16:27;;;;;;;1.77;1.67;;;29.40;99.90;;;;;;5105941;28;20202;-69
2022/06/20 09:19:14;;;;;;;2.05;1.90;;;29.60;99.90;;;;;;5109532;28;20290;-69
2022/06/20 09:21:51;;;;;;;2.00;1.90;;;29.70;99.90;;;;;;5113259;28;22164;-68
2022/06/20 09:24:29;;;;;;;2.22;2.00;;;29.70;99.90;;;;;;5103849;28;20203;-68
2022/06/20 09:27:06;;;;;;;1.95;1.85;;;29.70;99.90;;;;;;5104523;28;20194;-69
2022/06/20 09:29:59;;;;;;;2.17;2.00;;;29.80;99.90;;;;;;5103421;28;20308;-67
2022/06/20 09:32:57;;;;;;;1.90;1.63;;;29.90;99.90;;;;;;5109478;28;20585;-68
2022/06/20 09:36:07;;;;;;;1.95;1.85;;;29.80;99.90;;;;;;5104900;28;20281;-69
2022/06/20 09:38:53;;;;;;;2.75;2.13;;;29.70;99.90;;;;;;5102570;28;20255;-69
2022/06/20 09:41:30;;;;;;;1.83;1.70;;;29.80;99.90;;;;;;5101537;28;20206;-67
2022/06/20 09:44:15;;;;;;;2.03;1.92;;;30.00;99.90;;;;;;5107037;28;20190;-68
2022/06/20 09:46:55;;;;;;;1.80;1.70;;;30.00;99.90;;;;;;5098630;28;20207;-70
2022/06/20 09:49:32;;;;;;;1.73;1.63;;;29.90;99.90;;;;;;5108364;28;20280;-68
2022/06/20 09:52:08;;;;;;;1.60;1.40;;;30.00;99.90;;;;;;5104275;28;20189;-69
2022/06/20 09:54:47;;;;;;;2.03;1.85;;;30.30;99.90;;;;;;5110625;28;20196;-70
2022/06/20 09:57:33;;;;;;;1.70;1.40;;;30.50;99.90;;;;;;5109003;28;20694;-69
2022/06/20 10:00:06;;;;;;;1.88;1.77;;;30.60;99.90;;;;;;5100001;28;20778;-68
2022/06/20 10:02:43;;;;;;;1.88;1.77;;;30.40;99.90;;;;;;5106470;28;20217;-69
2022/06/20 10:05:19;;;;;;;1.90;1.75;;;30.30;99.90;;;;;;5106011;28;20605;-69
2022/06/20 10:07:52;;;;;;;1.83;1.73;;;30.30;99.90;;;;;;5110899;27;20280;-70
2022/06/20 10:10:23;;;;;;;1.50;1.40;;;30.50;99.90;;;;;;5122100;27;20299;-70
2022/06/20 10:12:56;;;;;;;1.80;1.70;;;30.60;99.90;;;;;;5120073;27;20217;-70
2022/06/20 10:15:31;;;;;;;1.83;1.73;;;30.80;99.90;;;;;;5130828;27;20273;-72
2022/06/20 10:18:07;;;;;;;1.40;1.30;;;30.60;99.90;;;;;;5128674;27;20699;-70
2022/06/20 10:20:42;;;;;;;2.28;1.40;;;30.60;99.90;;;;;;5128458;27;20324;-71
2022/06/20 10:23:25;;;;;;;1.58;1.42;;;30.90;99.90;;;;;;5131240;27;20208;-70
2022/06/20 10:26:19;;;;;;;1.50;1.35;;;31.30;99.90;;;;;;5141376;27;20225;-69
2022/06/20 10:28:49;;;;;;;1.42;1.33;;;31.60;99.90;;;;;;5139847;27;20225;-72
2022/06/20 10:31:29;;;;;;;1.17;1.10;;;31.30;99.90;;;;;;5142971;27;20212;-70
2022/06/20 10:34:06;;;;;;;1.00;1.00;;;30.90;99.90;;;;;;5129563;27;20792;-71
2022/06/20 10:36:51;;;;;;;1.38;1.20;;;30.60;99.90;;;;;;5128129;27;20255;-70
2022/06/20 10:39:28;;;;;;;1.20;1.10;;;30.50;99.90;;;;;;5126071;27;20235;-70
2022/06/20 10:42:08;;;;;;;1.38;1.27;;;30.60;99.90;;;;;;5129842;27;20197;-70
2022/06/20 10:44:46;;;;;;;1.67;1.27;;;30.60;99.90;;;;;;5131254;27;20296;-70
2022/06/20 10:47:19;;;;;;;1.30;1.20;;;30.30;99.90;;;;;;5126167;27;20281;-71
2022/06/20 10:50:08;;;;;;;1.45;1.35;;;30.20;99.90;;;;;;5130289;27;20263;-69
2022/06/20 10:52:51;;;;;;;1.00;1.00;;;30.30;99.90;;;;;;5119413;27;20304;-69
2022/06/20 10:55:35;;;;;;;1.00;1.00;;;30.40;99.90;;;;;;5117437;27;20541;-70
2022/06/20 10:58:13;;;;;;;1.20;1.10;;;30.70;99.90;;;;;;5105445;28;20198;-70
2022/06/20 11:00:46;;;;;;;1.13;1.02;;;30.70;99.90;;;;;;5110589;28;20261;-69
2022/06/20 11:03:40;;;;;;;1.15;1.10;;;30.30;99.90;;;;;;5107186;28;20247;-70
2022/06/20 11:06:20;;;;;;;1.10;1.10;;;30.10;99.90;;;;;;5105556;28;20225;-70
2022/06/20 11:08:55;;;;;;;1.30;1.20;;;29.80;99.90;;;;;;5107711;28;20682;-70
2022/06/20 11:11:36;;;;;;;1.00;1.00;;;29.70;99.90;;;;;;5111071;27;20577;-69
2022/06/20 11:14:13;;;;;;;1.17;1.10;;;29.70;99.90;;;;;;5101501;28;20187;-69
2022/06/20 11:16:47;;;;;;;1.30;1.20;;;29.70;99.90;;;;;;5107351;28;20225;-68
2022/06/20 11:19:25;;;;;;;2.25;1.60;;;29.90;99.90;;;;;;5109346;28;20285;-72
2022/06/20 11:22:06;;;;;;;1.42;1.33;;;29.60;99.90;;;;;;5114995;28;20222;-70
2022/06/20 11:24:45;;;;;;;1.60;1.50;;;29.20;99.90;;;;;;5104100;28;20250;-68
2022/06/20 11:27:29;;;;;;;1.65;1.50;;;28.70;99.90;;;;;;5102655;28;20199;-69
2022/06/20 11:30:07;;;;;;;1.58;1.48;;;28.50;99.90;;;;;;5101873;28;20265;-69
2022/06/20 11:32:47;;;;;;;1.40;1.30;;;28.40;99.90;;;;;;5111218;28;20273;-69
2022/06/20 11:35:26;;;;;;;1.55;1.45;;;28.70;99.90;;;;;;5103302;28;20198;-70
2022/06/20 11:38:07;;;;;;;1.50;1.40;;;28.80;99.90;;;;;;5112064;28;20194;-70
2022/06/20 11:40:42;;;;;;;6.07;3.65;;;29.00;99.90;;;;;;5109028;28;20202;-69
2022/06/20 11:43:42;;;;;;;1.60;1.50;;;28.90;99.90;;;;;;5108093;28;20210;-70
2022/06/20 11:46:38;;;;;;;1.52;1.42;;;29.20;99.90;;;;;;5061939;27;20234;-69
2022/06/20 11:49:17;;;;;;;1.10;1.10;;;29.40;99.90;;;;;;5107688;28;20222;-69
2022/06/20 11:51:54;;;;;;;1.40;1.30;;;29.40;99.90;;;;;;5116236;27;20201;-69
2022/06/20 11:54:31;;;;;;;1.55;1.45;;;29.60;99.90;;;;;;5112250;28;20281;-68
2022/06/20 11:57:06;;;;;;;1.55;1.27;;;29.70;99.90;;;;;;5102849;28;20198;-69
2022/06/20 11:59:43;;;;;;;1.20;1.20;;;29.10;99.90;;;;;;5104679;28;20217;-69
2022/06/20 12:02:30;;;;;;;2.20;1.42;;;28.80;99.90;;;;;;5103102;28;20202;-69
2022/06/20 12:05:02;;;;;;;1.70;1.60;;;28.50;99.90;;;;;;5103217;28;20228;-69
2022/06/20 12:07:37;;;;;;;1.52;1.42;;;28.20;99.90;;;;;;5098433;28;20260;-68
2022/06/20 12:10:15;;;;;;;1.90;1.52;;;28.10;99.90;;;;;;5101182;28;20224;-68
2022/06/20 12:12:51;;;;;;;1.40;1.30;;;28.00;99.90;;;;;;5104688;28;20202;-70
2022/06/20 12:15:41;;;;;;;1.55;1.45;;;27.90;99.90;;;;;;5107619;27;20781;-69
2022/06/20 12:18:33;;;;;;;1.75;1.65;;;28.00;99.90;;;;;;5111973;27;20263;-69
2022/06/20 12:23:53;;;;;;;1.30;1.20;;;27.70;99.90;;;;;;5119822;27;20282;-70
2022/06/20 12:26:29;;;;;;;1.38;1.27;;;27.70;99.90;;;;;;5119045;27;20203;-71
2022/06/20 12:28:58;;;;;;;1.73;1.50;;;27.80;99.90;;;;;;5119142;28;20221;-69
2022/06/20 12:31:30;;;;;;;1.45;1.35;;;27.70;99.90;;;;;;5117943;28;20247;-69
2022/06/20 12:34:03;;;;;;;1.40;1.30;;;27.40;99.90;;;;;;5109215;28;20199;-70
2022/06/20 12:36:39;;;;;;;1.60;1.50;;;27.20;99.90;;;;;;5103470;28;20194;-72
2022/06/20 12:39:11;;;;;;;1.67;1.58;;;27.10;99.90;;;;;;5103846;28;20641;-70
2022/06/20 12:41:45;;;;;;;1.52;1.42;;;27.30;99.90;;;;;;5105152;27;20586;-70
2022/06/20 12:44:36;;;;;;;1.27;1.20;;;27.20;99.90;;;;;;5105632;27;20258;-71
2022/06/20 12:47:29;;;;;;;1.42;1.30;;;27.20;99.90;;;;;;5119997;28;20224;-69
2022/06/20 12:50:06;;;;;;;1.50;1.40;;;27.60;99.90;;;;;;5116278;28;20214;-71
2022/06/20 12:52:40;;;;;;;1.38;1.27;;;27.80;99.90;;;;;;5118809;27;20280;-71
2022/06/20 12:55:27;;;;;;;1.52;1.42;;;27.90;99.90;;;;;;5106729;27;20209;-71
2022/06/20 12:58:10;;;;;;;2.53;1.60;;;27.80;99.90;;;;;;5109864;28;20198;-71
2022/06/20 13:00:42;;;;;;;1.77;1.25;;;27.70;99.90;;;;;;5126817;27;20201;-70
2022/06/20 13:03:39;;;;;;;1.27;1.20;;;27.60;99.90;;;;;;5107993;27;20225;-70
2022/06/20 13:06:44;;;;;;;1.30;1.20;;;27.70;99.90;;;;;;5117211;27;20198;-71
2022/06/20 13:09:34;;;;;;;1.58;1.30;;;27.80;99.90;;;;;;5069038;27;20591;-71
2022/06/20 13:12:14;;;;;;;1.10;1.10;;;27.90;99.90;;;;;;5117721;27;20551;-70
2022/06/20 13:15:25;;;;;;;1.10;1.00;;;28.10;99.90;;;;;;5117538;27;20203;-71
2022/06/20 13:18:06;;;;;;;1.40;1.30;;;28.40;99.90;;;;;;5110651;28;20241;-71
2022/06/20 13:20:40;;;;;;;1.00;1.00;;;28.30;99.90;;;;;;5110139;28;20190;-70
2022/06/20 13:23:34;;;;;;;1.25;1.20;;;28.30;99.90;;;;;;5108616;22;20236;-63
2022/06/20 13:26:10;;;;;;;1.40;1.30;;;28.40;99.90;;;;;;5090682;28;20286;-64
2022/06/20 13:28:42;;;;;;;1.05;1.05;;;28.50;99.90;;;;;;5092833;28;20291;-63
2022/06/20 13:31:15;;;;;;;1.00;1.00;;;28.60;99.90;;;;;;5092648;28;20672;-63
2022/06/20 13:33:48;;;;;;;1.10;1.10;;;28.50;99.90;;;;;;5103999;28;20285;-64
2022/06/20 13:36:22;;;;;;;1.10;1.00;;;28.30;99.90;;;;;;5107466;28;20293;-64
2022/06/20 13:38:55;;;;;;;1.25;1.15;;;28.60;99.90;;;;;;5108352;28;20194;-63
2022/06/20 13:41:28;;;;;;;1.80;1.58;;;28.90;99.90;;;;;;5109964;28;20194;-63